sensor_id;sensor_type;location;lat;lon;timestamp;P1;durP1;ratioP1;P2;durP2;ratioP2
33553;SDS011;19885;42.208;24.952;2022-08-11T00:01:48;8.25;;;3.30;;
33553;SDS011;19885;42.208;24.952;2022-08-11T00:04:17;3.60;;;3.03;;
33553;SDS011;19885;42.208;24.952;2022-08-11T00:06:45;5.15;;;3.60;;
33553;SDS011;19885;42.208;24.952;2022-08-11T00:09:16;7.07;;;3.85;;
33553;SDS011;19885;42.208;24.952;2022-08-11T00:11:45;4.90;;;3.67;;
33553;SDS011;19885;42.208;24.952;2022-08-11T00:14:17;10.25;;;3.85;;
33553;SDS011;19885;42.208;24.952;2022-08-11T00:17:19;5.28;;;4.45;;
33553;SDS011;19885;42.208;24.952;2022-08-11T00:19:45;5.00;;;3.95;;
33553;SDS011;19885;42.208;24.952;2022-08-11T00:22:18;4.38;;;3.72;;
33553;SDS011;19885;42.208;24.952;2022-08-11T00:24:45;6.22;;;3.70;;
33553;SDS011;19885;42.208;24.952;2022-08-11T00:27:12;4.50;;;3.33;;
33553;SDS011;19885;42.208;24.952;2022-08-11T00:29:38;4.40;;;3.33;;
33553;SDS011;19885;42.208;24.952;2022-08-11T00:32:04;5.10;;;3.75;;
33553;SDS011;19885;42.208;24.952;2022-08-11T00:34:37;9.50;;;3.92;;
33553;SDS011;19885;42.208;24.952;2022-08-11T00:37:06;4.85;;;4.05;;
33553;SDS011;19885;42.208;24.952;2022-08-11T00:39:41;10.32;;;3.80;;
33553;SDS011;19885;42.208;24.952;2022-08-11T00:45:08;7.38;;;3.90;;
33553;SDS011;19885;42.208;24.952;2022-08-11T01:12:37;6.78;;;4.93;;
33553;SDS011;19885;42.208;24.952;2022-08-11T01:15:25;7.95;;;4.57;;
33553;SDS011;19885;42.208;24.952;2022-08-11T01:38:38;7.60;;;4.55;;
33553;SDS011;19885;42.208;24.952;2022-08-11T01:47:58;7.13;;;4.82;;
33553;SDS011;19885;42.208;24.952;2022-08-11T01:53:08;8.35;;;5.05;;
33553;SDS011;19885;42.208;24.952;2022-08-11T01:55:46;8.13;;;4.75;;
33553;SDS011;19885;42.208;24.952;2022-08-11T02:09:59;5.80;;;4.60;;
33553;SDS011;19885;42.208;24.952;2022-08-11T02:12:58;15.10;;;5.13;;
33553;SDS011;19885;42.208;24.952;2022-08-11T02:15:45;12.60;;;5.73;;
33553;SDS011;19885;42.208;24.952;2022-08-11T02:21:21;7.43;;;5.43;;
33553;SDS011;19885;42.208;24.952;2022-08-11T02:24:29;7.07;;;5.27;;
33553;SDS011;19885;42.208;24.952;2022-08-11T02:27:04;7.93;;;5.93;;
33553;SDS011;19885;42.208;24.952;2022-08-11T02:35:26;6.40;;;5.60;;
33553;SDS011;19885;42.208;24.952;2022-08-11T02:38:44;9.37;;;5.00;;
33553;SDS011;19885;42.208;24.952;2022-08-11T02:44:07;8.37;;;5.27;;
33553;SDS011;19885;42.208;24.952;2022-08-11T02:50:29;6.07;;;5.37;;
33553;SDS011;19885;42.208;24.952;2022-08-11T02:53:13;5.93;;;5.27;;
33553;SDS011;19885;42.208;24.952;2022-08-11T02:59:03;7.27;;;5.90;;
33553;SDS011;19885;42.208;24.952;2022-08-11T03:02:10;8.03;;;5.40;;
33553;SDS011;19885;42.208;24.952;2022-08-11T03:13:02;7.97;;;5.63;;
33553;SDS011;19885;42.208;24.952;2022-08-11T03:25:09;8.03;;;5.73;;
33553;SDS011;19885;42.208;24.952;2022-08-11T03:27:47;7.37;;;5.87;;
33553;SDS011;19885;42.208;24.952;2022-08-11T03:30:18;8.53;;;5.93;;
33553;SDS011;19885;42.208;24.952;2022-08-11T03:36:04;9.97;;;5.80;;
33553;SDS011;19885;42.208;24.952;2022-08-11T03:41:36;8.57;;;5.83;;
33553;SDS011;19885;42.208;24.952;2022-08-11T03:44:24;8.47;;;5.10;;
33553;SDS011;19885;42.208;24.952;2022-08-11T03:47:17;9.20;;;6.30;;
33553;SDS011;19885;42.208;24.952;2022-08-11T04:01:15;13.37;;;6.40;;
33553;SDS011;19885;42.208;24.952;2022-08-11T04:32:35;6.85;;;5.65;;
33553;SDS011;19885;42.208;24.952;2022-08-11T04:41:19;6.45;;;4.80;;
33553;SDS011;19885;42.208;24.952;2022-08-11T04:50:28;6.00;;;4.80;;
33553;SDS011;19885;42.208;24.952;2022-08-11T04:53:41;5.70;;;5.20;;
33553;SDS011;19885;42.208;24.952;2022-08-11T04:56:37;5.32;;;3.88;;
33553;SDS011;19885;42.208;24.952;2022-08-11T05:06:18;5.13;;;4.22;;
33553;SDS011;19885;42.208;24.952;2022-08-11T05:16:59;6.05;;;4.47;;
33553;SDS011;19885;42.208;24.952;2022-08-11T05:19:51;5.72;;;4.53;;
33553;SDS011;19885;42.208;24.952;2022-08-11T05:22:36;7.20;;;5.55;;
33553;SDS011;19885;42.208;24.952;2022-08-11T05:25:28;7.93;;;5.05;;
33553;SDS011;19885;42.208;24.952;2022-08-11T05:28:34;6.90;;;5.40;;
33553;SDS011;19885;42.208;24.952;2022-08-11T05:31:25;18.00;;;6.25;;
33553;SDS011;19885;42.208;24.952;2022-08-11T05:34:24;5.95;;;5.32;;
33553;SDS011;19885;42.208;24.952;2022-08-11T05:37:16;8.18;;;6.78;;
33553;SDS011;19885;42.208;24.952;2022-08-11T05:39:47;9.73;;;6.40;;
33553;SDS011;19885;42.208;24.952;2022-08-11T05:42:37;13.00;;;6.68;;
33553;SDS011;19885;42.208;24.952;2022-08-11T05:45:38;9.10;;;6.13;;
33553;SDS011;19885;42.208;24.952;2022-08-11T05:48:23;11.40;;;5.97;;
33553;SDS011;19885;42.208;24.952;2022-08-11T05:51:15;8.68;;;6.38;;
33553;SDS011;19885;42.208;24.952;2022-08-11T05:54:00;7.82;;;5.72;;
33553;SDS011;19885;42.208;24.952;2022-08-11T05:56:57;6.47;;;4.95;;
33553;SDS011;19885;42.208;24.952;2022-08-11T05:59:28;6.18;;;5.57;;
33553;SDS011;19885;42.208;24.952;2022-08-11T06:02:02;9.90;;;5.35;;
33553;SDS011;19885;42.208;24.952;2022-08-11T06:04:30;7.50;;;4.32;;
33553;SDS011;19885;42.208;24.952;2022-08-11T06:07:03;5.85;;;3.70;;
33553;SDS011;19885;42.208;24.952;2022-08-11T06:12:28;8.15;;;4.82;;
33553;SDS011;19885;42.208;24.952;2022-08-11T06:14:57;5.07;;;4.00;;
33553;SDS011;19885;42.208;24.952;2022-08-11T06:17:27;7.57;;;4.22;;
33553;SDS011;19885;42.208;24.952;2022-08-11T06:20:04;4.53;;;4.10;;
33553;SDS011;19885;42.208;24.952;2022-08-11T06:22:36;7.88;;;4.85;;
33553;SDS011;19885;42.208;24.952;2022-08-11T06:25:03;6.45;;;4.22;;
33553;SDS011;19885;42.208;24.952;2022-08-11T06:27:31;4.82;;;4.13;;
33553;SDS011;19885;42.208;24.952;2022-08-11T06:29:59;5.88;;;4.57;;
33553;SDS011;19885;42.208;24.952;2022-08-11T06:32:28;6.90;;;4.07;;
33553;SDS011;19885;42.208;24.952;2022-08-11T06:46:34;4.75;;;3.67;;
33553;SDS011;19885;42.208;24.952;2022-08-11T06:49:03;40.88;;;6.30;;
33553;SDS011;19885;42.208;24.952;2022-08-11T06:51:51;6.97;;;3.72;;
33553;SDS011;19885;42.208;24.952;2022-08-11T06:54:16;5.75;;;3.88;;
33553;SDS011;19885;42.208;24.952;2022-08-11T06:56:44;8.60;;;4.43;;
33553;SDS011;19885;42.208;24.952;2022-08-11T06:59:29;3.90;;;3.50;;
33553;SDS011;19885;42.208;24.952;2022-08-11T07:02:21;9.77;;;5.05;;
33553;SDS011;19885;42.208;24.952;2022-08-11T07:05:15;8.93;;;5.75;;
33553;SDS011;19885;42.208;24.952;2022-08-11T13:03:25;4.57;;;2.83;;
33553;SDS011;19885;42.208;24.952;2022-08-11T13:06:10;4.75;;;2.78;;
33553;SDS011;19885;42.208;24.952;2022-08-11T13:08:37;2.45;;;2.25;;
33553;SDS011;19885;42.208;24.952;2022-08-11T13:11:05;6.28;;;2.80;;
33553;SDS011;19885;42.208;24.952;2022-08-11T13:13:50;2.80;;;1.95;;
33553;SDS011;19885;42.208;24.952;2022-08-11T13:16:21;3.17;;;2.28;;
33553;SDS011;19885;42.208;24.952;2022-08-11T13:18:48;5.43;;;2.40;;
33553;SDS011;19885;42.208;24.952;2022-08-11T13:21:14;3.30;;;2.58;;
33553;SDS011;19885;42.208;24.952;2022-08-11T13:23:41;5.25;;;2.08;;
33553;SDS011;19885;42.208;24.952;2022-08-11T13:26:07;3.45;;;2.35;;
33553;SDS011;19885;42.208;24.952;2022-08-11T13:28:37;2.25;;;2.00;;
33553;SDS011;19885;42.208;24.952;2022-08-11T13:31:07;2.60;;;2.08;;
33553;SDS011;19885;42.208;24.952;2022-08-11T13:33:38;10.23;;;1.83;;
33553;SDS011;19885;42.208;24.952;2022-08-11T13:36:10;3.35;;;1.90;;
33553;SDS011;19885;42.208;24.952;2022-08-11T13:38:37;3.08;;;1.92;;
33553;SDS011;19885;42.208;24.952;2022-08-11T13:41:05;4.53;;;2.28;;
33553;SDS011;19885;42.208;24.952;2022-08-11T13:43:51;2.25;;;1.90;;
33553;SDS011;19885;42.208;24.952;2022-08-11T13:46:18;5.70;;;2.90;;
33553;SDS011;19885;42.208;24.952;2022-08-11T13:48:46;1.95;;;1.75;;
33553;SDS011;19885;42.208;24.952;2022-08-11T13:51:13;2.17;;;1.80;;
33553;SDS011;19885;42.208;24.952;2022-08-11T13:53:54;2.92;;;2.40;;
33553;SDS011;19885;42.208;24.952;2022-08-11T13:56:24;1.70;;;1.60;;
33553;SDS011;19885;42.208;24.952;2022-08-11T13:58:51;4.25;;;2.00;;
33553;SDS011;19885;42.208;24.952;2022-08-11T14:01:18;1.75;;;1.60;;
33553;SDS011;19885;42.208;24.952;2022-08-11T14:03:46;1.40;;;1.30;;
33553;SDS011;19885;42.208;24.952;2022-08-11T14:06:13;1.85;;;1.33;;
33553;SDS011;19885;42.208;24.952;2022-08-11T14:08:41;1.65;;;1.55;;
33553;SDS011;19885;42.208;24.952;2022-08-11T14:11:08;1.88;;;1.67;;
33553;SDS011;19885;42.208;24.952;2022-08-11T14:13:54;3.20;;;1.25;;
33553;SDS011;19885;42.208;24.952;2022-08-11T14:16:29;1.63;;;1.25;;
33553;SDS011;19885;42.208;24.952;2022-08-11T14:18:57;2.42;;;1.42;;
33553;SDS011;19885;42.208;24.952;2022-08-11T14:21:28;1.77;;;1.10;;
33553;SDS011;19885;42.208;24.952;2022-08-11T14:24:16;1.65;;;1.55;;
33553;SDS011;19885;42.208;24.952;2022-08-11T14:26:42;10.82;;;1.63;;
33553;SDS011;19885;42.208;24.952;2022-08-11T14:31:42;3.35;;;1.55;;
33553;SDS011;19885;42.208;24.952;2022-08-11T14:34:10;2.25;;;1.33;;
33553;SDS011;19885;42.208;24.952;2022-08-11T14:36:39;1.33;;;1.23;;
33553;SDS011;19885;42.208;24.952;2022-08-11T14:39:17;1.52;;;1.40;;
33553;SDS011;19885;42.208;24.952;2022-08-11T14:41:53;1.42;;;1.33;;
33553;SDS011;19885;42.208;24.952;2022-08-11T14:44:41;4.45;;;1.58;;
33553;SDS011;19885;42.208;24.952;2022-08-11T14:47:30;14.63;;;1.85;;
33553;SDS011;19885;42.208;24.952;2022-08-11T14:50:01;1.17;;;1.08;;
33553;SDS011;19885;42.208;24.952;2022-08-11T14:52:29;9.05;;;2.40;;
33553;SDS011;19885;42.208;24.952;2022-08-11T14:57:46;33.00;;;8.05;;
33553;SDS011;19885;42.208;24.952;2022-08-11T15:00:13;9.32;;;1.73;;
33553;SDS011;19885;42.208;24.952;2022-08-11T15:02:41;1.90;;;1.17;;
33553;SDS011;19885;42.208;24.952;2022-08-11T15:05:26;1.58;;;1.40;;
33553;SDS011;19885;42.208;24.952;2022-08-11T15:07:55;18.88;;;4.93;;
33553;SDS011;19885;42.208;24.952;2022-08-11T15:10:22;1.83;;;1.23;;
33553;SDS011;19885;42.208;24.952;2022-08-11T15:12:48;1.05;;;0.98;;
33553;SDS011;19885;42.208;24.952;2022-08-11T15:15:15;2.78;;;1.27;;
33553;SDS011;19885;42.208;24.952;2022-08-11T15:18:02;3.35;;;1.45;;
33553;SDS011;19885;42.208;24.952;2022-08-11T15:20:31;5.10;;;1.30;;
33553;SDS011;19885;42.208;24.952;2022-08-11T15:23:15;2.63;;;1.23;;
33553;SDS011;19885;42.208;24.952;2022-08-11T15:26:09;1.20;;;1.10;;
33553;SDS011;19885;42.208;24.952;2022-08-11T15:28:47;2.35;;;1.65;;
33553;SDS011;19885;42.208;24.952;2022-08-11T15:31:33;2.58;;;1.35;;
33553;SDS011;19885;42.208;24.952;2022-08-11T15:34:20;3.83;;;1.40;;
33553;SDS011;19885;42.208;24.952;2022-08-11T15:37:08;4.63;;;1.20;;
33553;SDS011;19885;42.208;24.952;2022-08-11T15:39:52;1.70;;;1.38;;
33553;SDS011;19885;42.208;24.952;2022-08-11T15:42:52;1.33;;;1.10;;
33553;SDS011;19885;42.208;24.952;2022-08-11T15:45:43;3.00;;;1.30;;
33553;SDS011;19885;42.208;24.952;2022-08-11T15:50:57;2.72;;;1.25;;
33553;SDS011;19885;42.208;24.952;2022-08-11T15:53:45;3.40;;;1.60;;
33553;SDS011;19885;42.208;24.952;2022-08-11T15:56:15;11.88;;;2.22;;
33553;SDS011;19885;42.208;24.952;2022-08-11T15:58:42;1.52;;;1.15;;
33553;SDS011;19885;42.208;24.952;2022-08-11T16:01:29;3.00;;;1.00;;
33553;SDS011;19885;42.208;24.952;2022-08-11T16:04:23;1.42;;;1.33;;
33553;SDS011;19885;42.208;24.952;2022-08-11T16:09:29;1.40;;;1.30;;
33553;SDS011;19885;42.208;24.952;2022-08-11T16:11:59;4.80;;;1.55;;
33553;SDS011;19885;42.208;24.952;2022-08-11T16:14:30;5.05;;;1.05;;
33553;SDS011;19885;42.208;24.952;2022-08-11T16:17:17;3.15;;;1.23;;
33553;SDS011;19885;42.208;24.952;2022-08-11T16:19:45;7.95;;;1.45;;
33553;SDS011;19885;42.208;24.952;2022-08-11T16:22:16;7.85;;;1.67;;
33553;SDS011;19885;42.208;24.952;2022-08-11T16:24:53;4.88;;;1.58;;
33553;SDS011;19885;42.208;24.952;2022-08-11T16:27:20;2.15;;;0.90;;
33553;SDS011;19885;42.208;24.952;2022-08-11T16:29:47;2.97;;;1.23;;
33553;SDS011;19885;42.208;24.952;2022-08-11T16:32:19;3.67;;;1.70;;
33553;SDS011;19885;42.208;24.952;2022-08-11T16:34:48;3.33;;;1.55;;
33553;SDS011;19885;42.208;24.952;2022-08-11T16:37:43;5.95;;;1.30;;
33553;SDS011;19885;42.208;24.952;2022-08-11T16:40:28;1.17;;;0.90;;
33553;SDS011;19885;42.208;24.952;2022-08-11T16:42:55;5.18;;;1.40;;
33553;SDS011;19885;42.208;24.952;2022-08-11T16:45:40;2.40;;;1.10;;
33553;SDS011;19885;42.208;24.952;2022-08-11T16:48:27;2.40;;;1.80;;
33553;SDS011;19885;42.208;24.952;2022-08-11T16:50:56;1.33;;;1.23;;
33553;SDS011;19885;42.208;24.952;2022-08-11T16:53:25;1.77;;;1.40;;
33553;SDS011;19885;42.208;24.952;2022-08-11T16:55:53;7.32;;;1.27;;
33553;SDS011;19885;42.208;24.952;2022-08-11T16:58:20;1.35;;;1.08;;
33553;SDS011;19885;42.208;24.952;2022-08-11T17:01:07;2.22;;;1.70;;
33553;SDS011;19885;42.208;24.952;2022-08-11T17:06:26;3.30;;;1.10;;
33553;SDS011;19885;42.208;24.952;2022-08-11T17:09:10;0.98;;;0.98;;
33553;SDS011;19885;42.208;24.952;2022-08-11T17:11:59;1.77;;;1.17;;
33553;SDS011;19885;42.208;24.952;2022-08-11T17:14:50;1.23;;;1.00;;
33553;SDS011;19885;42.208;24.952;2022-08-11T17:17:36;3.38;;;1.20;;
33553;SDS011;19885;42.208;24.952;2022-08-11T17:20:04;4.88;;;1.80;;
33553;SDS011;19885;42.208;24.952;2022-08-11T17:22:34;8.07;;;2.38;;
33553;SDS011;19885;42.208;24.952;2022-08-11T17:25:23;4.43;;;2.70;;
33553;SDS011;19885;42.208;24.952;2022-08-11T17:27:52;3.50;;;2.40;;
33553;SDS011;19885;42.208;24.952;2022-08-11T17:30:20;10.50;;;2.63;;
33553;SDS011;19885;42.208;24.952;2022-08-11T17:33:07;3.85;;;2.50;;
33553;SDS011;19885;42.208;24.952;2022-08-11T17:35:51;5.68;;;2.70;;
33553;SDS011;19885;42.208;24.952;2022-08-11T17:38:17;4.40;;;2.80;;
33553;SDS011;19885;42.208;24.952;2022-08-11T17:40:47;5.03;;;2.58;;
33553;SDS011;19885;42.208;24.952;2022-08-11T17:43:34;6.20;;;2.83;;
33553;SDS011;19885;42.208;24.952;2022-08-11T17:46:20;3.25;;;2.50;;
33553;SDS011;19885;42.208;24.952;2022-08-11T17:49:07;4.40;;;2.90;;
33553;SDS011;19885;42.208;24.952;2022-08-11T17:51:34;3.35;;;2.83;;
33553;SDS011;19885;42.208;24.952;2022-08-11T17:54:19;2.67;;;2.45;;
33553;SDS011;19885;42.208;24.952;2022-08-11T17:57:05;2.60;;;2.40;;
33553;SDS011;19885;42.208;24.952;2022-08-11T17:59:50;5.90;;;2.95;;
33553;SDS011;19885;42.208;24.952;2022-08-11T18:02:18;4.28;;;2.05;;
33553;SDS011;19885;42.208;24.952;2022-08-11T18:05:10;2.75;;;2.00;;
33553;SDS011;19885;42.208;24.952;2022-08-11T18:07:36;2.42;;;2.20;;
33553;SDS011;19885;42.208;24.952;2022-08-11T18:10:23;2.35;;;2.15;;
33553;SDS011;19885;42.208;24.952;2022-08-11T18:13:07;5.03;;;2.55;;
33553;SDS011;19885;42.208;24.952;2022-08-11T18:15:52;6.55;;;2.40;;
33553;SDS011;19885;42.208;24.952;2022-08-11T18:18:37;2.53;;;2.15;;
33553;SDS011;19885;42.208;24.952;2022-08-11T18:21:21;2.35;;;2.10;;
33553;SDS011;19885;42.208;24.952;2022-08-11T18:24:11;3.22;;;2.03;;
33553;SDS011;19885;42.208;24.952;2022-08-11T18:26:57;5.07;;;2.10;;
33553;SDS011;19885;42.208;24.952;2022-08-11T18:29:44;2.25;;;2.05;;
33553;SDS011;19885;42.208;24.952;2022-08-11T18:32:33;3.55;;;1.98;;
33553;SDS011;19885;42.208;24.952;2022-08-11T18:35:20;4.32;;;2.50;;
33553;SDS011;19885;42.208;24.952;2022-08-11T18:38:08;1.98;;;1.83;;
33553;SDS011;19885;42.208;24.952;2022-08-11T18:40:54;3.38;;;2.33;;
33553;SDS011;19885;42.208;24.952;2022-08-11T18:43:41;4.03;;;2.70;;
33553;SDS011;19885;42.208;24.952;2022-08-11T18:46:26;2.97;;;2.58;;
33553;SDS011;19885;42.208;24.952;2022-08-11T18:49:16;4.43;;;2.85;;
33553;SDS011;19885;42.208;24.952;2022-08-11T18:52:05;3.22;;;2.40;;
33553;SDS011;19885;42.208;24.952;2022-08-11T18:54:50;6.80;;;2.75;;
33553;SDS011;19885;42.208;24.952;2022-08-11T18:57:38;2.63;;;2.42;;
33553;SDS011;19885;42.208;24.952;2022-08-11T19:00:24;3.15;;;2.22;;
33553;SDS011;19885;42.208;24.952;2022-08-11T19:03:10;4.10;;;2.25;;
33553;SDS011;19885;42.208;24.952;2022-08-11T19:05:57;2.78;;;2.45;;
33553;SDS011;19885;42.208;24.952;2022-08-11T19:08:51;2.60;;;2.35;;
33553;SDS011;19885;42.208;24.952;2022-08-11T19:11:37;4.78;;;1.98;;
33553;SDS011;19885;42.208;24.952;2022-08-11T19:14:22;2.95;;;2.38;;
33553;SDS011;19885;42.208;24.952;2022-08-11T19:17:09;3.47;;;2.42;;
33553;SDS011;19885;42.208;24.952;2022-08-11T19:19:55;3.38;;;2.63;;
33553;SDS011;19885;42.208;24.952;2022-08-11T19:22:42;3.53;;;2.88;;
33553;SDS011;19885;42.208;24.952;2022-08-11T19:25:28;3.47;;;2.33;;
33553;SDS011;19885;42.208;24.952;2022-08-11T19:28:15;3.88;;;2.78;;
33553;SDS011;19885;42.208;24.952;2022-08-11T19:31:02;3.70;;;2.47;;
33553;SDS011;19885;42.208;24.952;2022-08-11T19:33:46;2.83;;;2.58;;
33553;SDS011;19885;42.208;24.952;2022-08-11T19:36:31;3.22;;;2.72;;
33553;SDS011;19885;42.208;24.952;2022-08-11T19:39:18;3.45;;;3.00;;
33553;SDS011;19885;42.208;24.952;2022-08-11T19:42:03;2.95;;;2.63;;
33553;SDS011;19885;42.208;24.952;2022-08-11T19:44:50;7.05;;;2.90;;
33553;SDS011;19885;42.208;24.952;2022-08-11T19:47:37;3.80;;;2.70;;
33553;SDS011;19885;42.208;24.952;2022-08-11T19:50:21;5.25;;;3.03;;
33553;SDS011;19885;42.208;24.952;2022-08-11T19:53:06;4.82;;;2.80;;
33553;SDS011;19885;42.208;24.952;2022-08-11T19:55:52;4.75;;;2.78;;
33553;SDS011;19885;42.208;24.952;2022-08-11T19:58:37;8.90;;;3.22;;
33553;SDS011;19885;42.208;24.952;2022-08-11T20:01:22;3.40;;;2.70;;
33553;SDS011;19885;42.208;24.952;2022-08-11T20:04:07;5.50;;;3.45;;
33553;SDS011;19885;42.208;24.952;2022-08-11T20:06:52;5.47;;;3.08;;
33553;SDS011;19885;42.208;24.952;2022-08-11T20:09:38;6.60;;;3.45;;
33553;SDS011;19885;42.208;24.952;2022-08-11T20:12:23;4.20;;;3.00;;
33553;SDS011;19885;42.208;24.952;2022-08-11T20:15:10;5.70;;;2.63;;
33553;SDS011;19885;42.208;24.952;2022-08-11T20:17:56;6.63;;;3.00;;
33553;SDS011;19885;42.208;24.952;2022-08-11T20:20:41;5.40;;;2.80;;
33553;SDS011;19885;42.208;24.952;2022-08-11T20:23:25;14.60;;;3.60;;
33553;SDS011;19885;42.208;24.952;2022-08-11T20:26:11;3.88;;;3.47;;
33553;SDS011;19885;42.208;24.952;2022-08-11T20:28:55;4.38;;;3.25;;
33553;SDS011;19885;42.208;24.952;2022-08-11T20:31:41;3.05;;;2.83;;
33553;SDS011;19885;42.208;24.952;2022-08-11T20:34:26;7.60;;;3.72;;
33553;SDS011;19885;42.208;24.952;2022-08-11T20:37:11;4.85;;;3.10;;
33553;SDS011;19885;42.208;24.952;2022-08-11T20:39:56;6.47;;;3.35;;
33553;SDS011;19885;42.208;24.952;2022-08-11T20:42:42;3.45;;;3.00;;
33553;SDS011;19885;42.208;24.952;2022-08-11T20:45:26;4.80;;;3.55;;
33553;SDS011;19885;42.208;24.952;2022-08-11T20:48:12;10.57;;;3.35;;
33553;SDS011;19885;42.208;24.952;2022-08-11T20:50:57;4.65;;;3.17;;
33553;SDS011;19885;42.208;24.952;2022-08-11T20:53:42;3.88;;;3.22;;
33553;SDS011;19885;42.208;24.952;2022-08-11T20:56:28;5.18;;;3.15;;
33553;SDS011;19885;42.208;24.952;2022-08-11T20:59:14;5.13;;;3.28;;
33553;SDS011;19885;42.208;24.952;2022-08-11T21:02:03;4.80;;;2.78;;
33553;SDS011;19885;42.208;24.952;2022-08-11T21:04:49;4.95;;;3.22;;
33553;SDS011;19885;42.208;24.952;2022-08-11T21:07:34;6.28;;;3.13;;
33553;SDS011;19885;42.208;24.952;2022-08-11T21:10:22;3.40;;;3.00;;
33553;SDS011;19885;42.208;24.952;2022-08-11T21:13:12;6.18;;;2.33;;
33553;SDS011;19885;42.208;24.952;2022-08-11T21:16:00;3.17;;;2.88;;
33553;SDS011;19885;42.208;24.952;2022-08-11T21:18:47;4.43;;;3.03;;
33553;SDS011;19885;42.208;24.952;2022-08-11T21:21:32;2.83;;;2.63;;
33553;SDS011;19885;42.208;24.952;2022-08-11T21:24:17;3.78;;;2.70;;
33553;SDS011;19885;42.208;24.952;2022-08-11T21:27:02;3.75;;;2.80;;
33553;SDS011;19885;42.208;24.952;2022-08-11T21:29:50;5.10;;;3.20;;
33553;SDS011;19885;42.208;24.952;2022-08-11T21:32:35;4.40;;;3.33;;
33553;SDS011;19885;42.208;24.952;2022-08-11T21:35:20;5.40;;;3.53;;
33553;SDS011;19885;42.208;24.952;2022-08-11T21:38:08;4.85;;;3.47;;
33553;SDS011;19885;42.208;24.952;2022-08-11T21:40:56;4.80;;;3.83;;
33553;SDS011;19885;42.208;24.952;2022-08-11T21:43:41;5.78;;;3.67;;
33553;SDS011;19885;42.208;24.952;2022-08-11T21:46:26;4.20;;;3.78;;
33553;SDS011;19885;42.208;24.952;2022-08-11T21:49:12;5.60;;;4.53;;
33553;SDS011;19885;42.208;24.952;2022-08-11T21:51:57;6.88;;;4.70;;
33553;SDS011;19885;42.208;24.952;2022-08-11T21:54:41;7.53;;;4.35;;
33553;SDS011;19885;42.208;24.952;2022-08-11T21:57:30;5.35;;;4.28;;
33553;SDS011;19885;42.208;24.952;2022-08-11T22:00:14;5.05;;;4.55;;
33553;SDS011;19885;42.208;24.952;2022-08-11T22:03:01;6.75;;;4.55;;
33553;SDS011;19885;42.208;24.952;2022-08-11T22:05:47;7.68;;;3.78;;
33553;SDS011;19885;42.208;24.952;2022-08-11T22:08:32;5.28;;;4.40;;
33553;SDS011;19885;42.208;24.952;2022-08-11T22:11:17;5.65;;;4.63;;
33553;SDS011;19885;42.208;24.952;2022-08-11T22:14:04;5.93;;;4.45;;
33553;SDS011;19885;42.208;24.952;2022-08-11T22:16:48;4.57;;;4.18;;
33553;SDS011;19885;42.208;24.952;2022-08-11T22:19:34;5.95;;;5.35;;
33553;SDS011;19885;42.208;24.952;2022-08-11T22:22:19;6.78;;;6.07;;
33553;SDS011;19885;42.208;24.952;2022-08-11T22:25:05;6.78;;;6.03;;
33553;SDS011;19885;42.208;24.952;2022-08-11T22:27:51;10.20;;;6.13;;
33553;SDS011;19885;42.208;24.952;2022-08-11T22:30:35;7.78;;;6.55;;
33553;SDS011;19885;42.208;24.952;2022-08-11T22:33:19;6.60;;;5.97;;
33553;SDS011;19885;42.208;24.952;2022-08-11T22:36:04;8.45;;;7.15;;
33553;SDS011;19885;42.208;24.952;2022-08-11T22:38:50;7.95;;;6.70;;
33553;SDS011;19885;42.208;24.952;2022-08-11T22:41:36;6.38;;;5.72;;
33553;SDS011;19885;42.208;24.952;2022-08-11T22:44:22;8.00;;;6.88;;
33553;SDS011;19885;42.208;24.952;2022-08-11T22:47:06;8.73;;;7.38;;
33553;SDS011;19885;42.208;24.952;2022-08-11T22:49:56;9.73;;;7.03;;
33553;SDS011;19885;42.208;24.952;2022-08-11T22:52:41;8.55;;;7.38;;
33553;SDS011;19885;42.208;24.952;2022-08-11T22:55:26;8.95;;;7.25;;
33553;SDS011;19885;42.208;24.952;2022-08-11T22:58:14;7.70;;;6.22;;
33553;SDS011;19885;42.208;24.952;2022-08-11T23:01:00;10.57;;;7.50;;
33553;SDS011;19885;42.208;24.952;2022-08-11T23:03:47;8.57;;;6.95;;
33553;SDS011;19885;42.208;24.952;2022-08-11T23:06:32;9.23;;;7.45;;
33553;SDS011;19885;42.208;24.952;2022-08-11T23:09:17;10.10;;;7.07;;
33553;SDS011;19885;42.208;24.952;2022-08-11T23:12:03;7.55;;;6.75;;
33553;SDS011;19885;42.208;24.952;2022-08-11T23:14:51;8.98;;;7.68;;
33553;SDS011;19885;42.208;24.952;2022-08-11T23:17:39;7.03;;;6.10;;
33553;SDS011;19885;42.208;24.952;2022-08-11T23:20:24;10.15;;;6.63;;
33553;SDS011;19885;42.208;24.952;2022-08-11T23:23:08;10.52;;;6.80;;
33553;SDS011;19885;42.208;24.952;2022-08-11T23:25:55;7.97;;;7.18;;
33553;SDS011;19885;42.208;24.952;2022-08-11T23:28:43;8.85;;;6.90;;
33553;SDS011;19885;42.208;24.952;2022-08-11T23:31:28;16.70;;;7.22;;
33553;SDS011;19885;42.208;24.952;2022-08-11T23:34:19;8.32;;;7.45;;
33553;SDS011;19885;42.208;24.952;2022-08-11T23:37:04;10.05;;;7.65;;
33553;SDS011;19885;42.208;24.952;2022-08-11T23:39:51;9.60;;;7.03;;
33553;SDS011;19885;42.208;24.952;2022-08-11T23:42:38;11.32;;;8.18;;
33553;SDS011;19885;42.208;24.952;2022-08-11T23:45:23;9.75;;;7.68;;
33553;SDS011;19885;42.208;24.952;2022-08-11T23:48:08;10.32;;;8.00;;
33553;SDS011;19885;42.208;24.952;2022-08-11T23:50:55;12.82;;;9.07;;
33553;SDS011;19885;42.208;24.952;2022-08-11T23:53:41;10.35;;;8.48;;
33553;SDS011;19885;42.208;24.952;2022-08-11T23:56:26;10.43;;;8.30;;
33553;SDS011;19885;42.208;24.952;2022-08-11T23:59:10;9.65;;;8.50;;
